Cummings, North Dakota
Current Conditions -  °F | °C
As of 6:53 AM on Saturday 25 Oct 2014 (Local Time) from KGFK Reporting Station
Clear Clear  
Wind Chill: 36°   Ceiling: Unl
Heat Index: 41°   Visibility: 10mi
Dew Point: 33°   Wind: 8mph
Humidity: 73%   Direction: 260°W
Pressure: 30.02"   Gusts: NA
Location:  47.51°N, 97.08°W
Report Text: KGFK 251153Z 26007KT 10SM CLR 05/01 A3002 RMK AO2 SLP171 T00500006 10094 20039 53015
Loading
Personal Weather Stations






























Interactive Weather Map New forecast layout! Learn more

10-Day Weather Forecast

Advertisements
Track Severe Weather on mobile